sensor_id;sensor_type;location;lat;lon;timestamp;pressure;altitude;pressure_sealevel;temperature
76901;BMP280;65859;43.020;25.096;2023-08-24T00:01:11;99257.84;;;24.18
76901;BMP280;65859;43.020;25.096;2023-08-24T00:03:45;99246.84;;;24.25
76901;BMP280;65859;43.020;25.096;2023-08-24T00:06:12;99257.03;;;24.21
76901;BMP280;65859;43.020;25.096;2023-08-24T00:08:38;99254.75;;;24.00
76901;BMP280;65859;43.020;25.096;2023-08-24T00:11:05;99253.34;;;23.72
76901;BMP280;65859;43.020;25.096;2023-08-24T00:13:32;99252.31;;;23.66
76901;BMP280;65859;43.020;25.096;2023-08-24T00:15:58;99261.47;;;23.52
76901;BMP280;65859;43.020;25.096;2023-08-24T00:18:25;99255.75;;;23.46
76901;BMP280;65859;43.020;25.096;2023-08-24T00:20:52;99258.88;;;23.45
76901;BMP280;65859;43.020;25.096;2023-08-24T00:23:19;99253.47;;;23.45
76901;BMP280;65859;43.020;25.096;2023-08-24T00:25:45;99256.03;;;23.52
76901;BMP280;65859;43.020;25.096;2023-08-24T00:28:12;99247.34;;;23.60
76901;BMP280;65859;43.020;25.096;2023-08-24T00:30:38;99252.38;;;23.62
76901;BMP280;65859;43.020;25.096;2023-08-24T00:33:04;99250.00;;;23.64
76901;BMP280;65859;43.020;25.096;2023-08-24T00:35:32;99251.47;;;23.69
76901;BMP280;65859;43.020;25.096;2023-08-24T00:37:59;99247.84;;;23.75
76901;BMP280;65859;43.020;25.096;2023-08-24T00:40:25;99250.25;;;23.73
76901;BMP280;65859;43.020;25.096;2023-08-24T00:42:52;99250.94;;;23.77
76901;BMP280;65859;43.020;25.096;2023-08-24T00:45:18;99252.06;;;23.80
76901;BMP280;65859;43.020;25.096;2023-08-24T00:47:48;99249.00;;;23.78
76901;BMP280;65859;43.020;25.096;2023-08-24T00:50:16;99244.75;;;23.77
76901;BMP280;65859;43.020;25.096;2023-08-24T00:52:44;99247.28;;;23.64
76901;BMP280;65859;43.020;25.096;2023-08-24T00:55:12;99246.81;;;23.69
76901;BMP280;65859;43.020;25.096;2023-08-24T00:57:40;99245.34;;;23.65
76901;BMP280;65859;43.020;25.096;2023-08-24T01:00:08;99254.91;;;23.92
76901;BMP280;65859;43.020;25.096;2023-08-24T01:02:37;99258.59;;;24.02
76901;BMP280;65859;43.020;25.096;2023-08-24T01:05:04;99253.50;;;24.24
76901;BMP280;65859;43.020;25.096;2023-08-24T01:07:34;99259.34;;;24.03
76901;BMP280;65859;43.020;25.096;2023-08-24T01:10:03;99249.81;;;23.95
76901;BMP280;65859;43.020;25.096;2023-08-24T01:15:33;99237.63;;;23.83
76901;BMP280;65859;43.020;25.096;2023-08-24T01:18:10;99245.78;;;23.63
76901;BMP280;65859;43.020;25.096;2023-08-24T01:20:41;99249.16;;;23.67
76901;BMP280;65859;43.020;25.096;2023-08-24T01:28:02;99246.91;;;23.66
76901;BMP280;65859;43.020;25.096;2023-08-24T01:30:30;99254.19;;;23.69
76901;BMP280;65859;43.020;25.096;2023-08-24T01:32:59;99255.72;;;23.89
76901;BMP280;65859;43.020;25.096;2023-08-24T01:35:25;99250.50;;;23.59
76901;BMP280;65859;43.020;25.096;2023-08-24T01:37:51;99253.41;;;23.48
76901;BMP280;65859;43.020;25.096;2023-08-24T01:40:25;99260.75;;;23.48
76901;BMP280;65859;43.020;25.096;2023-08-24T01:42:59;99261.53;;;23.68
76901;BMP280;65859;43.020;25.096;2023-08-24T01:45:30;99250.97;;;23.93
76901;BMP280;65859;43.020;25.096;2023-08-24T01:47:59;99234.31;;;23.55
76901;BMP280;65859;43.020;25.096;2023-08-24T01:50:26;99239.22;;;23.41
76901;BMP280;65859;43.020;25.096;2023-08-24T01:52:53;99244.00;;;23.33
76901;BMP280;65859;43.020;25.096;2023-08-24T01:55:20;99242.13;;;23.50
76901;BMP280;65859;43.020;25.096;2023-08-24T01:57:49;99250.63;;;23.52
76901;BMP280;65859;43.020;25.096;2023-08-24T02:00:15;99244.69;;;23.57
76901;BMP280;65859;43.020;25.096;2023-08-24T02:02:45;99246.00;;;23.49
76901;BMP280;65859;43.020;25.096;2023-08-24T02:05:11;99241.75;;;23.28
76901;BMP280;65859;43.020;25.096;2023-08-24T02:07:39;99241.47;;;23.42
76901;BMP280;65859;43.020;25.096;2023-08-24T02:10:07;99234.09;;;23.46
76901;BMP280;65859;43.020;25.096;2023-08-24T02:12:33;99235.59;;;23.24
76901;BMP280;65859;43.020;25.096;2023-08-24T02:15:00;99233.81;;;23.17
76901;BMP280;65859;43.020;25.096;2023-08-24T02:17:28;99238.00;;;23.42
76901;BMP280;65859;43.020;25.096;2023-08-24T02:19:56;99240.00;;;23.61
76901;BMP280;65859;43.020;25.096;2023-08-24T02:22:22;99237.38;;;23.77
76901;BMP280;65859;43.020;25.096;2023-08-24T02:24:48;99236.44;;;24.04
76901;BMP280;65859;43.020;25.096;2023-08-24T02:27:14;99239.81;;;23.91
76901;BMP280;65859;43.020;25.096;2023-08-24T02:29:42;99240.47;;;24.15
76901;BMP280;65859;43.020;25.096;2023-08-24T02:32:08;99236.75;;;24.25
76901;BMP280;65859;43.020;25.096;2023-08-24T02:34:35;99242.94;;;24.46
76901;BMP280;65859;43.020;25.096;2023-08-24T02:37:01;99233.09;;;24.16
76901;BMP280;65859;43.020;25.096;2023-08-24T02:39:29;99238.28;;;23.90
76901;BMP280;65859;43.020;25.096;2023-08-24T02:41:55;99224.50;;;24.01
76901;BMP280;65859;43.020;25.096;2023-08-24T02:44:21;99236.59;;;24.16
76901;BMP280;65859;43.020;25.096;2023-08-24T02:46:48;99237.34;;;23.97
76901;BMP280;65859;43.020;25.096;2023-08-24T02:49:15;99239.25;;;24.36
76901;BMP280;65859;43.020;25.096;2023-08-24T02:51:41;99241.16;;;24.39
76901;BMP280;65859;43.020;25.096;2023-08-24T02:54:08;99241.81;;;24.43
76901;BMP280;65859;43.020;25.096;2023-08-24T02:56:34;99240.38;;;24.39
76901;BMP280;65859;43.020;25.096;2023-08-24T02:59:00;99244.81;;;24.49
76901;BMP280;65859;43.020;25.096;2023-08-24T03:01:28;99248.59;;;24.35
76901;BMP280;65859;43.020;25.096;2023-08-24T03:03:55;99245.75;;;24.42
76901;BMP280;65859;43.020;25.096;2023-08-24T03:06:21;99249.03;;;24.50
76901;BMP280;65859;43.020;25.096;2023-08-24T03:08:49;99246.06;;;24.44
76901;BMP280;65859;43.020;25.096;2023-08-24T03:11:16;99246.78;;;23.92
76901;BMP280;65859;43.020;25.096;2023-08-24T03:13:42;99246.06;;;23.69
76901;BMP280;65859;43.020;25.096;2023-08-24T03:16:09;99250.41;;;24.22
76901;BMP280;65859;43.020;25.096;2023-08-24T03:18:35;99257.66;;;24.45
76901;BMP280;65859;43.020;25.096;2023-08-24T03:21:02;99252.81;;;24.36
76901;BMP280;65859;43.020;25.096;2023-08-24T03:23:28;99253.97;;;24.39
76901;BMP280;65859;43.020;25.096;2023-08-24T03:25:55;99262.19;;;24.51
76901;BMP280;65859;43.020;25.096;2023-08-24T03:28:22;99263.56;;;24.04
76901;BMP280;65859;43.020;25.096;2023-08-24T03:30:51;99254.09;;;24.12
76901;BMP280;65859;43.020;25.096;2023-08-24T03:33:19;99260.72;;;24.31
76901;BMP280;65859;43.020;25.096;2023-08-24T03:35:45;99266.75;;;24.38
76901;BMP280;65859;43.020;25.096;2023-08-24T03:38:12;99264.13;;;24.15
76901;BMP280;65859;43.020;25.096;2023-08-24T03:40:38;99271.56;;;24.11
76901;BMP280;65859;43.020;25.096;2023-08-24T03:43:05;99264.41;;;23.61
76901;BMP280;65859;43.020;25.096;2023-08-24T03:45:31;99267.59;;;23.33
76901;BMP280;65859;43.020;25.096;2023-08-24T03:47:57;99259.34;;;23.16
76901;BMP280;65859;43.020;25.096;2023-08-24T03:50:23;99261.34;;;23.12
76901;BMP280;65859;43.020;25.096;2023-08-24T03:52:53;99262.47;;;23.81
76901;BMP280;65859;43.020;25.096;2023-08-24T03:55:20;99260.31;;;24.12
76901;BMP280;65859;43.020;25.096;2023-08-24T03:57:47;99268.06;;;24.30
76901;BMP280;65859;43.020;25.096;2023-08-24T04:00:13;99266.69;;;24.22
76901;BMP280;65859;43.020;25.096;2023-08-24T04:02:41;99273.50;;;24.30
76901;BMP280;65859;43.020;25.096;2023-08-24T04:05:09;99268.03;;;24.50
76901;BMP280;65859;43.020;25.096;2023-08-24T04:07:35;99270.38;;;23.72
76901;BMP280;65859;43.020;25.096;2023-08-24T04:10:04;99263.16;;;23.42
76901;BMP280;65859;43.020;25.096;2023-08-24T04:12:32;99269.44;;;23.39
76901;BMP280;65859;43.020;25.096;2023-08-24T04:14:58;99269.25;;;23.03
76901;BMP280;65859;43.020;25.096;2023-08-24T04:17:25;99280.34;;;23.09
76901;BMP280;65859;43.020;25.096;2023-08-24T04:19:51;99278.88;;;23.04
76901;BMP280;65859;43.020;25.096;2023-08-24T04:22:18;99274.00;;;22.96
76901;BMP280;65859;43.020;25.096;2023-08-24T04:24:44;99289.28;;;23.06
76901;BMP280;65859;43.020;25.096;2023-08-24T04:27:11;99292.47;;;23.01
76901;BMP280;65859;43.020;25.096;2023-08-24T04:29:37;99285.00;;;22.85
76901;BMP280;65859;43.020;25.096;2023-08-24T04:32:04;99278.75;;;22.88
76901;BMP280;65859;43.020;25.096;2023-08-24T04:34:30;99290.91;;;23.03
76901;BMP280;65859;43.020;25.096;2023-08-24T04:36:58;99289.94;;;23.13
76901;BMP280;65859;43.020;25.096;2023-08-24T04:39:24;99291.44;;;22.91
76901;BMP280;65859;43.020;25.096;2023-08-24T04:41:51;99289.63;;;23.11
76901;BMP280;65859;43.020;25.096;2023-08-24T04:44:17;99288.69;;;22.94
76901;BMP280;65859;43.020;25.096;2023-08-24T04:46:43;99287.81;;;23.01
76901;BMP280;65859;43.020;25.096;2023-08-24T04:49:10;99294.66;;;23.09
76901;BMP280;65859;43.020;25.096;2023-08-24T04:51:36;99284.47;;;23.17
76901;BMP280;65859;43.020;25.096;2023-08-24T04:54:02;99289.00;;;23.23
76901;BMP280;65859;43.020;25.096;2023-08-24T04:56:29;99289.44;;;22.95
76901;BMP280;65859;43.020;25.096;2023-08-24T04:58:56;99287.38;;;23.06
76901;BMP280;65859;43.020;25.096;2023-08-24T05:01:25;99285.75;;;23.09
76901;BMP280;65859;43.020;25.096;2023-08-24T05:03:53;99279.00;;;23.20
76901;BMP280;65859;43.020;25.096;2023-08-24T05:06:22;99282.63;;;23.37
76901;BMP280;65859;43.020;25.096;2023-08-24T05:08:50;99283.63;;;23.47
76901;BMP280;65859;43.020;25.096;2023-08-24T05:11:22;99291.28;;;23.52
76901;BMP280;65859;43.020;25.096;2023-08-24T05:13:48;99295.81;;;23.58
76901;BMP280;65859;43.020;25.096;2023-08-24T05:16:14;99296.09;;;24.04
76901;BMP280;65859;43.020;25.096;2023-08-24T05:18:41;99292.59;;;24.07
76901;BMP280;65859;43.020;25.096;2023-08-24T05:21:07;99287.69;;;24.18
76901;BMP280;65859;43.020;25.096;2023-08-24T05:23:34;99292.09;;;24.48
76901;BMP280;65859;43.020;25.096;2023-08-24T05:26:01;99291.50;;;24.40
76901;BMP280;65859;43.020;25.096;2023-08-24T05:28:29;99300.97;;;24.32
76901;BMP280;65859;43.020;25.096;2023-08-24T05:30:56;99297.31;;;24.58
76901;BMP280;65859;43.020;25.096;2023-08-24T05:33:23;99301.50;;;25.73
76901;BMP280;65859;43.020;25.096;2023-08-24T05:35:51;99297.38;;;26.23
76901;BMP280;65859;43.020;25.096;2023-08-24T05:38:17;99302.72;;;26.14
76901;BMP280;65859;43.020;25.096;2023-08-24T05:40:49;99307.53;;;25.81
76901;BMP280;65859;43.020;25.096;2023-08-24T05:43:16;99309.50;;;25.93
76901;BMP280;65859;43.020;25.096;2023-08-24T05:45:42;99316.28;;;25.72
76901;BMP280;65859;43.020;25.096;2023-08-24T05:48:11;99312.63;;;25.91
76901;BMP280;65859;43.020;25.096;2023-08-24T05:50:42;99313.84;;;25.90
76901;BMP280;65859;43.020;25.096;2023-08-24T05:53:08;99312.78;;;25.72
76901;BMP280;65859;43.020;25.096;2023-08-24T05:55:34;99310.25;;;25.81
76901;BMP280;65859;43.020;25.096;2023-08-24T05:58:00;99310.13;;;25.84
76901;BMP280;65859;43.020;25.096;2023-08-24T06:00:27;99313.66;;;24.91
76901;BMP280;65859;43.020;25.096;2023-08-24T06:02:53;99310.66;;;25.18
76901;BMP280;65859;43.020;25.096;2023-08-24T06:05:20;99310.56;;;24.73
76901;BMP280;65859;43.020;25.096;2023-08-24T06:07:46;99312.38;;;24.79
76901;BMP280;65859;43.020;25.096;2023-08-24T06:10:12;99325.03;;;24.86
76901;BMP280;65859;43.020;25.096;2023-08-24T06:12:40;99336.56;;;25.06
76901;BMP280;65859;43.020;25.096;2023-08-24T06:15:07;99337.94;;;25.31
76901;BMP280;65859;43.020;25.096;2023-08-24T06:17:36;99337.41;;;25.36
76901;BMP280;65859;43.020;25.096;2023-08-24T06:20:03;99337.78;;;25.05
76901;BMP280;65859;43.020;25.096;2023-08-24T06:22:30;99336.97;;;24.88
76901;BMP280;65859;43.020;25.096;2023-08-24T06:24:56;99346.59;;;25.26
76901;BMP280;65859;43.020;25.096;2023-08-24T06:27:26;99360.56;;;25.73
76901;BMP280;65859;43.020;25.096;2023-08-24T06:29:52;99358.16;;;25.75
76901;BMP280;65859;43.020;25.096;2023-08-24T06:32:19;99351.78;;;25.81
76901;BMP280;65859;43.020;25.096;2023-08-24T06:34:45;99365.19;;;25.27
76901;BMP280;65859;43.020;25.096;2023-08-24T06:37:12;99363.91;;;25.32
76901;BMP280;65859;43.020;25.096;2023-08-24T06:39:38;99363.22;;;25.28
76901;BMP280;65859;43.020;25.096;2023-08-24T06:42:04;99363.44;;;25.37
76901;BMP280;65859;43.020;25.096;2023-08-24T06:44:32;99359.69;;;26.05
76901;BMP280;65859;43.020;25.096;2023-08-24T06:46:59;99348.25;;;26.64
76901;BMP280;65859;43.020;25.096;2023-08-24T06:49:25;99352.44;;;27.29
76901;BMP280;65859;43.020;25.096;2023-08-24T06:51:51;99352.50;;;27.38
76901;BMP280;65859;43.020;25.096;2023-08-24T06:54:18;99355.94;;;27.85
76901;BMP280;65859;43.020;25.096;2023-08-24T06:56:44;99350.22;;;28.45
76901;BMP280;65859;43.020;25.096;2023-08-24T06:59:10;99345.31;;;28.09
76901;BMP280;65859;43.020;25.096;2023-08-24T07:01:39;99357.84;;;28.28
76901;BMP280;65859;43.020;25.096;2023-08-24T07:04:06;99358.25;;;28.89
76901;BMP280;65859;43.020;25.096;2023-08-24T07:06:36;99354.03;;;29.24
76901;BMP280;65859;43.020;25.096;2023-08-24T07:09:03;99357.09;;;29.26
76901;BMP280;65859;43.020;25.096;2023-08-24T07:11:32;99344.03;;;29.21
76901;BMP280;65859;43.020;25.096;2023-08-24T07:13:58;99342.88;;;28.82
76901;BMP280;65859;43.020;25.096;2023-08-24T07:16:26;99335.94;;;28.90
76901;BMP280;65859;43.020;25.096;2023-08-24T07:18:52;99340.38;;;29.33
76901;BMP280;65859;43.020;25.096;2023-08-24T07:21:18;99343.22;;;29.76
76901;BMP280;65859;43.020;25.096;2023-08-24T07:23:45;99345.91;;;30.03
76901;BMP280;65859;43.020;25.096;2023-08-24T07:26:13;99340.66;;;29.81
76901;BMP280;65859;43.020;25.096;2023-08-24T07:28:39;99331.53;;;29.66
76901;BMP280;65859;43.020;25.096;2023-08-24T07:31:12;99337.22;;;30.14
76901;BMP280;65859;43.020;25.096;2023-08-24T07:33:39;99333.78;;;30.37
76901;BMP280;65859;43.020;25.096;2023-08-24T07:36:06;99333.81;;;30.52
76901;BMP280;65859;43.020;25.096;2023-08-24T07:38:32;99333.94;;;30.90
76901;BMP280;65859;43.020;25.096;2023-08-24T07:40:59;99335.75;;;30.93
76901;BMP280;65859;43.020;25.096;2023-08-24T07:43:25;99341.78;;;30.73
76901;BMP280;65859;43.020;25.096;2023-08-24T07:45:51;99324.75;;;30.69
76901;BMP280;65859;43.020;25.096;2023-08-24T07:48:19;99326.88;;;31.52
76901;BMP280;65859;43.020;25.096;2023-08-24T07:50:45;99327.66;;;31.28
76901;BMP280;65859;43.020;25.096;2023-08-24T07:53:12;99317.28;;;30.70
76901;BMP280;65859;43.020;25.096;2023-08-24T07:55:38;99325.25;;;30.68
76901;BMP280;65859;43.020;25.096;2023-08-24T07:58:04;99327.47;;;30.13
76901;BMP280;65859;43.020;25.096;2023-08-24T08:00:31;99322.94;;;30.10
76901;BMP280;65859;43.020;25.096;2023-08-24T08:02:57;99320.66;;;30.41
76901;BMP280;65859;43.020;25.096;2023-08-24T08:05:24;99325.19;;;30.44
76901;BMP280;65859;43.020;25.096;2023-08-24T08:07:51;99323.38;;;30.41
76901;BMP280;65859;43.020;25.096;2023-08-24T08:10:17;99315.47;;;30.67
76901;BMP280;65859;43.020;25.096;2023-08-24T08:12:44;99317.28;;;30.46
76901;BMP280;65859;43.020;25.096;2023-08-24T08:15:10;99318.88;;;30.86
76901;BMP280;65859;43.020;25.096;2023-08-24T08:17:36;99314.94;;;30.77
76901;BMP280;65859;43.020;25.096;2023-08-24T08:20:04;99306.59;;;30.96
76901;BMP280;65859;43.020;25.096;2023-08-24T08:22:33;99301.47;;;31.57
76901;BMP280;65859;43.020;25.096;2023-08-24T08:25:04;99309.03;;;32.26
76901;BMP280;65859;43.020;25.096;2023-08-24T08:27:31;99293.78;;;32.45
76901;BMP280;65859;43.020;25.096;2023-08-24T08:29:59;99301.22;;;32.39
76901;BMP280;65859;43.020;25.096;2023-08-24T08:32:25;99303.06;;;32.68
76901;BMP280;65859;43.020;25.096;2023-08-24T08:34:54;99318.47;;;35.24
76901;BMP280;65859;43.020;25.096;2023-08-24T08:37:24;99317.56;;;36.13
76901;BMP280;65859;43.020;25.096;2023-08-24T08:39:51;99312.03;;;37.36
76901;BMP280;65859;43.020;25.096;2023-08-24T08:42:17;99307.69;;;38.27
76901;BMP280;65859;43.020;25.096;2023-08-24T08:44:45;99307.28;;;38.73
76901;BMP280;65859;43.020;25.096;2023-08-24T08:47:14;99314.25;;;36.26
76901;BMP280;65859;43.020;25.096;2023-08-24T08:49:43;99303.00;;;37.79
76901;BMP280;65859;43.020;25.096;2023-08-24T08:52:11;99306.34;;;36.52
76901;BMP280;65859;43.020;25.096;2023-08-24T08:54:38;99308.53;;;37.00
76901;BMP280;65859;43.020;25.096;2023-08-24T08:57:04;99299.69;;;38.74
76901;BMP280;65859;43.020;25.096;2023-08-24T08:59:31;99306.88;;;39.14
76901;BMP280;65859;43.020;25.096;2023-08-24T09:01:58;99295.06;;;34.16
76901;BMP280;65859;43.020;25.096;2023-08-24T09:04:31;99302.38;;;39.11
76901;BMP280;65859;43.020;25.096;2023-08-24T09:06:57;99292.00;;;39.91
76901;BMP280;65859;43.020;25.096;2023-08-24T09:09:25;99301.97;;;40.20
76901;BMP280;65859;43.020;25.096;2023-08-24T09:11:52;99298.34;;;39.25
76901;BMP280;65859;43.020;25.096;2023-08-24T09:14:19;99286.06;;;39.34
76901;BMP280;65859;43.020;25.096;2023-08-24T09:16:45;99293.50;;;38.68
76901;BMP280;65859;43.020;25.096;2023-08-24T09:19:12;99290.00;;;39.78
76901;BMP280;65859;43.020;25.096;2023-08-24T09:21:39;99280.72;;;40.43
76901;BMP280;65859;43.020;25.096;2023-08-24T09:24:09;99277.59;;;41.17
76901;BMP280;65859;43.020;25.096;2023-08-24T09:26:37;99278.63;;;40.57
76901;BMP280;65859;43.020;25.096;2023-08-24T09:29:15;99271.53;;;40.97
76901;BMP280;65859;43.020;25.096;2023-08-24T09:31:43;99264.09;;;41.28
76901;BMP280;65859;43.020;25.096;2023-08-24T09:34:12;99268.31;;;38.66
76901;BMP280;65859;43.020;25.096;2023-08-24T09:36:39;99268.22;;;38.21
76901;BMP280;65859;43.020;25.096;2023-08-24T09:39:05;99247.09;;;38.81
76901;BMP280;65859;43.020;25.096;2023-08-24T09:41:46;99256.34;;;36.80
76901;BMP280;65859;43.020;25.096;2023-08-24T09:44:13;99246.34;;;35.73
76901;BMP280;65859;43.020;25.096;2023-08-24T09:46:40;99243.28;;;35.87
76901;BMP280;65859;43.020;25.096;2023-08-24T09:49:08;99253.31;;;32.66
76901;BMP280;65859;43.020;25.096;2023-08-24T09:51:36;99251.84;;;34.44
76901;BMP280;65859;43.020;25.096;2023-08-24T09:54:08;99217.63;;;35.92
76901;BMP280;65859;43.020;25.096;2023-08-24T09:56:39;99225.34;;;36.52
76901;BMP280;65859;43.020;25.096;2023-08-24T09:59:16;99221.75;;;36.21
76901;BMP280;65859;43.020;25.096;2023-08-24T10:01:49;99200.06;;;35.79
76901;BMP280;65859;43.020;25.096;2023-08-24T10:04:20;99226.84;;;35.32
76901;BMP280;65859;43.020;25.096;2023-08-24T10:10:07;99189.19;;;35.28
76901;BMP280;65859;43.020;25.096;2023-08-24T10:12:41;99177.84;;;34.26
76901;BMP280;65859;43.020;25.096;2023-08-24T10:15:10;99171.50;;;36.17
76901;BMP280;65859;43.020;25.096;2023-08-24T10:17:40;99163.63;;;36.32
76901;BMP280;65859;43.020;25.096;2023-08-24T10:20:07;99165.47;;;32.83
76901;BMP280;65859;43.020;25.096;2023-08-24T10:22:36;99151.28;;;35.23
76901;BMP280;65859;43.020;25.096;2023-08-24T10:25:03;99140.41;;;35.42
76901;BMP280;65859;43.020;25.096;2023-08-24T10:27:31;99143.09;;;35.70
76901;BMP280;65859;43.020;25.096;2023-08-24T10:29:57;99138.47;;;36.36
76901;BMP280;65859;43.020;25.096;2023-08-24T10:32:25;99135.03;;;35.83
76901;BMP280;65859;43.020;25.096;2023-08-24T10:34:53;99138.28;;;35.07
76901;BMP280;65859;43.020;25.096;2023-08-24T10:37:26;99130.50;;;34.89
76901;BMP280;65859;43.020;25.096;2023-08-24T10:39:52;99124.75;;;34.59
76901;BMP280;65859;43.020;25.096;2023-08-24T10:42:19;99116.41;;;34.09
76901;BMP280;65859;43.020;25.096;2023-08-24T10:44:47;99111.84;;;33.41
76901;BMP280;65859;43.020;25.096;2023-08-24T10:47:21;99116.69;;;32.52
76901;BMP280;65859;43.020;25.096;2023-08-24T10:54:49;99119.25;;;32.87
76901;BMP280;65859;43.020;25.096;2023-08-24T10:57:23;99107.72;;;32.31
76901;BMP280;65859;43.020;25.096;2023-08-24T11:00:10;99095.94;;;31.09
76901;BMP280;65859;43.020;25.096;2023-08-24T11:02:48;99099.41;;;31.24
76901;BMP280;65859;43.020;25.096;2023-08-24T11:08:02;99112.56;;;30.61
76901;BMP280;65859;43.020;25.096;2023-08-24T11:10:47;99121.28;;;31.54
76901;BMP280;65859;43.020;25.096;2023-08-24T11:13:17;99116.56;;;31.54
76901;BMP280;65859;43.020;25.096;2023-08-24T11:15:46;99108.19;;;32.04
76901;BMP280;65859;43.020;25.096;2023-08-24T11:21:09;99108.84;;;30.35
76901;BMP280;65859;43.020;25.096;2023-08-24T11:23:35;99119.56;;;30.00
76901;BMP280;65859;43.020;25.096;2023-08-24T11:26:01;99128.00;;;29.63
76901;BMP280;65859;43.020;25.096;2023-08-24T11:28:29;99142.50;;;29.55
76901;BMP280;65859;43.020;25.096;2023-08-24T11:30:58;99141.28;;;28.95
76901;BMP280;65859;43.020;25.096;2023-08-24T11:33:35;99150.38;;;29.62
76901;BMP280;65859;43.020;25.096;2023-08-24T11:36:04;99151.19;;;29.44
76901;BMP280;65859;43.020;25.096;2023-08-24T11:38:41;99142.88;;;29.29
76901;BMP280;65859;43.020;25.096;2023-08-24T11:41:14;99144.72;;;29.65
76901;BMP280;65859;43.020;25.096;2023-08-24T11:43:42;99145.41;;;29.42
76901;BMP280;65859;43.020;25.096;2023-08-24T11:46:08;99136.69;;;29.62
76901;BMP280;65859;43.020;25.096;2023-08-24T11:48:34;99123.41;;;29.27
76901;BMP280;65859;43.020;25.096;2023-08-24T11:51:02;99116.97;;;28.97
76901;BMP280;65859;43.020;25.096;2023-08-24T11:53:29;99108.97;;;28.76
76901;BMP280;65859;43.020;25.096;2023-08-24T11:55:58;99114.44;;;28.67
76901;BMP280;65859;43.020;25.096;2023-08-24T11:58:25;99120.00;;;29.18
76901;BMP280;65859;43.020;25.096;2023-08-24T12:00:51;99124.22;;;29.61
76901;BMP280;65859;43.020;25.096;2023-08-24T12:03:19;99125.88;;;29.25
76901;BMP280;65859;43.020;25.096;2023-08-24T12:05:45;99119.91;;;28.76
76901;BMP280;65859;43.020;25.096;2023-08-24T12:08:12;99125.81;;;28.38
76901;BMP280;65859;43.020;25.096;2023-08-24T12:10:42;99132.41;;;28.09
76901;BMP280;65859;43.020;25.096;2023-08-24T12:13:09;99132.63;;;28.24
76901;BMP280;65859;43.020;25.096;2023-08-24T12:15:37;99125.22;;;28.52
76901;BMP280;65859;43.020;25.096;2023-08-24T12:18:13;99122.31;;;28.37
76901;BMP280;65859;43.020;25.096;2023-08-24T12:20:43;99125.94;;;28.43
76901;BMP280;65859;43.020;25.096;2023-08-24T12:23:10;99123.09;;;28.56
76901;BMP280;65859;43.020;25.096;2023-08-24T12:25:39;99136.88;;;28.43
76901;BMP280;65859;43.020;25.096;2023-08-24T12:28:12;99139.75;;;28.21
76901;BMP280;65859;43.020;25.096;2023-08-24T12:30:52;99140.91;;;28.02
76901;BMP280;65859;43.020;25.096;2023-08-24T12:33:31;99130.31;;;28.04
76901;BMP280;65859;43.020;25.096;2023-08-24T12:35:58;99116.75;;;27.91
76901;BMP280;65859;43.020;25.096;2023-08-24T12:38:26;99110.59;;;28.09
76901;BMP280;65859;43.020;25.096;2023-08-24T12:40:53;99104.38;;;28.00
76901;BMP280;65859;43.020;25.096;2023-08-24T12:43:20;99115.34;;;28.45
76901;BMP280;65859;43.020;25.096;2023-08-24T12:45:46;99126.13;;;28.31
76901;BMP280;65859;43.020;25.096;2023-08-24T12:48:13;99139.66;;;27.94
76901;BMP280;65859;43.020;25.096;2023-08-24T12:50:39;99138.69;;;28.28
76901;BMP280;65859;43.020;25.096;2023-08-24T12:53:05;99123.88;;;27.89
76901;BMP280;65859;43.020;25.096;2023-08-24T12:55:38;99125.34;;;28.12
76901;BMP280;65859;43.020;25.096;2023-08-24T12:58:05;99133.09;;;28.50
76901;BMP280;65859;43.020;25.096;2023-08-24T13:00:31;99119.78;;;28.52
76901;BMP280;65859;43.020;25.096;2023-08-24T13:02:58;99128.53;;;28.65
76901;BMP280;65859;43.020;25.096;2023-08-24T13:05:28;99116.41;;;28.75
76901;BMP280;65859;43.020;25.096;2023-08-24T13:07:54;99120.81;;;28.36
76901;BMP280;65859;43.020;25.096;2023-08-24T13:10:21;99128.22;;;28.26
76901;BMP280;65859;43.020;25.096;2023-08-24T13:12:47;99127.34;;;28.48
76901;BMP280;65859;43.020;25.096;2023-08-24T13:15:13;99136.56;;;28.23
76901;BMP280;65859;43.020;25.096;2023-08-24T13:17:41;99140.69;;;27.78
76901;BMP280;65859;43.020;25.096;2023-08-24T13:20:07;99141.44;;;27.79
76901;BMP280;65859;43.020;25.096;2023-08-24T13:22:34;99124.38;;;27.56
76901;BMP280;65859;43.020;25.096;2023-08-24T13:25:00;99104.56;;;27.65
76901;BMP280;65859;43.020;25.096;2023-08-24T13:27:27;99114.59;;;27.15
76901;BMP280;65859;43.020;25.096;2023-08-24T13:29:53;99101.16;;;27.52
76901;BMP280;65859;43.020;25.096;2023-08-24T13:32:22;99119.56;;;27.08
76901;BMP280;65859;43.020;25.096;2023-08-24T13:34:49;99107.63;;;27.45
76901;BMP280;65859;43.020;25.096;2023-08-24T13:37:17;99121.00;;;27.21
76901;BMP280;65859;43.020;25.096;2023-08-24T13:39:44;99120.50;;;27.76
76901;BMP280;65859;43.020;25.096;2023-08-24T13:42:10;99130.28;;;27.55
76901;BMP280;65859;43.020;25.096;2023-08-24T13:44:36;99127.53;;;27.55
76901;BMP280;65859;43.020;25.096;2023-08-24T13:47:03;99126.97;;;27.60
76901;BMP280;65859;43.020;25.096;2023-08-24T13:49:30;99130.81;;;27.72
76901;BMP280;65859;43.020;25.096;2023-08-24T13:51:56;99120.31;;;27.61
76901;BMP280;65859;43.020;25.096;2023-08-24T13:54:22;99115.75;;;27.58
76901;BMP280;65859;43.020;25.096;2023-08-24T13:56:49;99124.81;;;27.95
76901;BMP280;65859;43.020;25.096;2023-08-24T13:59:16;99133.66;;;28.08
76901;BMP280;65859;43.020;25.096;2023-08-24T14:01:42;99125.78;;;28.19
76901;BMP280;65859;43.020;25.096;2023-08-24T14:04:09;99109.41;;;27.70
76901;BMP280;65859;43.020;25.096;2023-08-24T14:06:36;99091.66;;;27.56
76901;BMP280;65859;43.020;25.096;2023-08-24T14:09:06;99079.31;;;27.43
76901;BMP280;65859;43.020;25.096;2023-08-24T14:11:33;99080.91;;;27.53
76901;BMP280;65859;43.020;25.096;2023-08-24T14:13:59;99092.31;;;27.79
76901;BMP280;65859;43.020;25.096;2023-08-24T14:16:26;99086.97;;;27.66
76901;BMP280;65859;43.020;25.096;2023-08-24T14:18:52;99095.66;;;27.74
76901;BMP280;65859;43.020;25.096;2023-08-24T14:21:19;99107.72;;;28.13